sensor_id;sensor_type;location;lat;lon;timestamp;P1;durP1;ratioP1;P2;durP2;ratioP2
45676;SDS011;31390;51.186;6.830;2022-07-19T00:00:31;6.13;;;3.25;;
45676;SDS011;31390;51.186;6.830;2022-07-19T00:02:58;5.93;;;3.13;;
45676;SDS011;31390;51.186;6.830;2022-07-19T00:05:25;7.45;;;3.17;;
45676;SDS011;31390;51.186;6.830;2022-07-19T00:07:52;4.22;;;3.00;;
45676;SDS011;31390;51.186;6.830;2022-07-19T00:10:20;3.75;;;2.90;;
45676;SDS011;31390;51.186;6.830;2022-07-19T00:12:50;5.65;;;3.35;;
45676;SDS011;31390;51.186;6.830;2022-07-19T00:15:18;7.88;;;3.53;;
45676;SDS011;31390;51.186;6.830;2022-07-19T00:17:46;3.95;;;3.10;;
45676;SDS011;31390;51.186;6.830;2022-07-19T00:20:18;7.63;;;3.38;;
45676;SDS011;31390;51.186;6.830;2022-07-19T00:22:48;6.25;;;3.47;;
45676;SDS011;31390;51.186;6.830;2022-07-19T00:25:15;6.47;;;3.65;;
45676;SDS011;31390;51.186;6.830;2022-07-19T00:27:42;6.88;;;3.35;;
45676;SDS011;31390;51.186;6.830;2022-07-19T00:30:11;5.50;;;3.10;;
45676;SDS011;31390;51.186;6.830;2022-07-19T00:32:41;6.10;;;2.78;;
45676;SDS011;31390;51.186;6.830;2022-07-19T00:35:08;7.53;;;3.50;;
45676;SDS011;31390;51.186;6.830;2022-07-19T00:37:36;5.07;;;3.15;;
45676;SDS011;31390;51.186;6.830;2022-07-19T00:40:12;4.35;;;3.08;;
45676;SDS011;31390;51.186;6.830;2022-07-19T00:42:40;4.30;;;3.15;;
45676;SDS011;31390;51.186;6.830;2022-07-19T00:45:07;8.40;;;3.47;;
45676;SDS011;31390;51.186;6.830;2022-07-19T00:47:34;4.85;;;3.20;;
45676;SDS011;31390;51.186;6.830;2022-07-19T00:50:04;4.38;;;3.15;;
45676;SDS011;31390;51.186;6.830;2022-07-19T00:52:31;4.88;;;3.20;;
45676;SDS011;31390;51.186;6.830;2022-07-19T00:55:01;7.03;;;3.45;;
45676;SDS011;31390;51.186;6.830;2022-07-19T00:58:17;5.40;;;3.35;;
45676;SDS011;31390;51.186;6.830;2022-07-19T01:00:37;6.10;;;3.35;;
45676;SDS011;31390;51.186;6.830;2022-07-19T01:03:06;5.07;;;3.22;;
45676;SDS011;31390;51.186;6.830;2022-07-19T01:05:36;5.80;;;3.10;;
45676;SDS011;31390;51.186;6.830;2022-07-19T01:08:05;5.60;;;3.40;;
45676;SDS011;31390;51.186;6.830;2022-07-19T01:10:33;8.55;;;3.08;;
45676;SDS011;31390;51.186;6.830;2022-07-19T01:13:00;5.85;;;3.30;;
45676;SDS011;31390;51.186;6.830;2022-07-19T01:15:27;5.20;;;3.50;;
45676;SDS011;31390;51.186;6.830;2022-07-19T01:18:04;5.18;;;3.40;;
45676;SDS011;31390;51.186;6.830;2022-07-19T01:20:31;4.63;;;3.30;;
45676;SDS011;31390;51.186;6.830;2022-07-19T01:23:03;5.38;;;3.28;;
45676;SDS011;31390;51.186;6.830;2022-07-19T01:25:34;7.32;;;3.38;;
45676;SDS011;31390;51.186;6.830;2022-07-19T01:28:04;5.70;;;3.53;;
45676;SDS011;31390;51.186;6.830;2022-07-19T01:30:35;3.90;;;3.40;;
45676;SDS011;31390;51.186;6.830;2022-07-19T01:33:07;5.07;;;3.75;;
45676;SDS011;31390;51.186;6.830;2022-07-19T01:35:36;6.10;;;2.97;;
45676;SDS011;31390;51.186;6.830;2022-07-19T01:38:05;4.45;;;3.67;;
45676;SDS011;31390;51.186;6.830;2022-07-19T01:40:35;5.05;;;3.58;;
45676;SDS011;31390;51.186;6.830;2022-07-19T01:43:02;4.97;;;3.70;;
45676;SDS011;31390;51.186;6.830;2022-07-19T01:45:29;5.60;;;3.60;;
45676;SDS011;31390;51.186;6.830;2022-07-19T01:47:57;5.30;;;3.10;;
45676;SDS011;31390;51.186;6.830;2022-07-19T01:50:26;5.22;;;3.65;;
45676;SDS011;31390;51.186;6.830;2022-07-19T01:52:55;4.15;;;3.28;;
45676;SDS011;31390;51.186;6.830;2022-07-19T01:55:21;3.47;;;2.90;;
45676;SDS011;31390;51.186;6.830;2022-07-19T01:57:50;4.60;;;3.05;;
45676;SDS011;31390;51.186;6.830;2022-07-19T02:00:17;4.32;;;3.50;;
45676;SDS011;31390;51.186;6.830;2022-07-19T02:02:48;4.57;;;3.33;;
45676;SDS011;31390;51.186;6.830;2022-07-19T02:05:16;5.65;;;3.75;;
45676;SDS011;31390;51.186;6.830;2022-07-19T02:07:45;7.93;;;3.20;;
45676;SDS011;31390;51.186;6.830;2022-07-19T02:10:12;5.88;;;3.65;;
45676;SDS011;31390;51.186;6.830;2022-07-19T02:12:38;5.60;;;3.40;;
45676;SDS011;31390;51.186;6.830;2022-07-19T02:15:05;6.45;;;3.13;;
45676;SDS011;31390;51.186;6.830;2022-07-19T02:17:32;4.13;;;3.50;;
45676;SDS011;31390;51.186;6.830;2022-07-19T02:20:00;4.95;;;3.65;;
45676;SDS011;31390;51.186;6.830;2022-07-19T02:22:27;6.18;;;3.13;;
45676;SDS011;31390;51.186;6.830;2022-07-19T02:24:54;4.88;;;3.08;;
45676;SDS011;31390;51.186;6.830;2022-07-19T02:27:22;4.10;;;3.20;;
45676;SDS011;31390;51.186;6.830;2022-07-19T02:29:50;4.65;;;3.60;;
45676;SDS011;31390;51.186;6.830;2022-07-19T02:32:21;5.10;;;3.28;;
45676;SDS011;31390;51.186;6.830;2022-07-19T02:34:48;3.97;;;3.33;;
45676;SDS011;31390;51.186;6.830;2022-07-19T02:37:15;4.80;;;3.30;;
45676;SDS011;31390;51.186;6.830;2022-07-19T02:39:42;5.22;;;3.30;;
45676;SDS011;31390;51.186;6.830;2022-07-19T02:42:08;6.03;;;3.10;;
45676;SDS011;31390;51.186;6.830;2022-07-19T02:44:36;3.67;;;2.95;;
45676;SDS011;31390;51.186;6.830;2022-07-19T02:47:05;5.63;;;3.28;;
45676;SDS011;31390;51.186;6.830;2022-07-19T02:49:32;5.47;;;3.65;;
45676;SDS011;31390;51.186;6.830;2022-07-19T02:51:59;7.40;;;3.65;;
45676;SDS011;31390;51.186;6.830;2022-07-19T02:54:28;8.05;;;3.58;;
45676;SDS011;31390;51.186;6.830;2022-07-19T02:56:57;6.50;;;3.42;;
45676;SDS011;31390;51.186;6.830;2022-07-19T02:59:23;6.30;;;3.47;;
45676;SDS011;31390;51.186;6.830;2022-07-19T03:01:53;5.57;;;3.33;;
45676;SDS011;31390;51.186;6.830;2022-07-19T03:04:21;5.63;;;3.50;;
45676;SDS011;31390;51.186;6.830;2022-07-19T03:06:50;4.28;;;3.13;;
45676;SDS011;31390;51.186;6.830;2022-07-19T03:09:16;4.38;;;2.75;;
45676;SDS011;31390;51.186;6.830;2022-07-19T03:11:46;5.47;;;3.60;;
45676;SDS011;31390;51.186;6.830;2022-07-19T03:14:14;5.18;;;3.75;;
45676;SDS011;31390;51.186;6.830;2022-07-19T03:16:41;5.25;;;3.33;;
45676;SDS011;31390;51.186;6.830;2022-07-19T03:19:09;5.20;;;3.47;;
45676;SDS011;31390;51.186;6.830;2022-07-19T03:21:38;4.30;;;2.92;;
45676;SDS011;31390;51.186;6.830;2022-07-19T03:24:05;5.43;;;3.70;;
45676;SDS011;31390;51.186;6.830;2022-07-19T03:26:32;4.70;;;3.28;;
45676;SDS011;31390;51.186;6.830;2022-07-19T03:29:01;3.80;;;3.15;;
45676;SDS011;31390;51.186;6.830;2022-07-19T03:31:33;4.57;;;3.05;;
45676;SDS011;31390;51.186;6.830;2022-07-19T03:34:01;6.00;;;3.22;;
45676;SDS011;31390;51.186;6.830;2022-07-19T03:36:30;5.28;;;3.47;;
45676;SDS011;31390;51.186;6.830;2022-07-19T03:38:58;4.78;;;2.95;;
45676;SDS011;31390;51.186;6.830;2022-07-19T03:41:26;5.22;;;3.58;;
45676;SDS011;31390;51.186;6.830;2022-07-19T03:44:05;4.85;;;3.35;;
45676;SDS011;31390;51.186;6.830;2022-07-19T03:46:32;5.75;;;3.38;;
45676;SDS011;31390;51.186;6.830;2022-07-19T03:49:01;5.30;;;3.50;;
45676;SDS011;31390;51.186;6.830;2022-07-19T03:51:30;4.78;;;3.40;;
45676;SDS011;31390;51.186;6.830;2022-07-19T03:53:59;6.03;;;3.45;;
45676;SDS011;31390;51.186;6.830;2022-07-19T03:56:26;5.40;;;3.60;;
45676;SDS011;31390;51.186;6.830;2022-07-19T03:58:55;6.47;;;3.42;;
45676;SDS011;31390;51.186;6.830;2022-07-19T04:01:21;6.47;;;3.80;;
45676;SDS011;31390;51.186;6.830;2022-07-19T04:03:59;5.15;;;3.30;;
45676;SDS011;31390;51.186;6.830;2022-07-19T04:06:27;5.82;;;3.58;;
45676;SDS011;31390;51.186;6.830;2022-07-19T04:08:55;5.22;;;3.60;;
45676;SDS011;31390;51.186;6.830;2022-07-19T04:11:23;3.90;;;3.40;;
45676;SDS011;31390;51.186;6.830;2022-07-19T04:13:52;4.72;;;3.40;;
45676;SDS011;31390;51.186;6.830;2022-07-19T04:16:24;4.65;;;3.60;;
45676;SDS011;31390;51.186;6.830;2022-07-19T04:18:56;6.55;;;3.42;;
45676;SDS011;31390;51.186;6.830;2022-07-19T04:21:26;5.95;;;3.33;;
45676;SDS011;31390;51.186;6.830;2022-07-19T04:23:53;5.10;;;3.40;;
45676;SDS011;31390;51.186;6.830;2022-07-19T04:26:20;4.35;;;3.40;;
45676;SDS011;31390;51.186;6.830;2022-07-19T04:28:47;6.93;;;3.15;;
45676;SDS011;31390;51.186;6.830;2022-07-19T04:31:13;4.95;;;3.15;;
45676;SDS011;31390;51.186;6.830;2022-07-19T04:33:47;5.30;;;3.30;;
45676;SDS011;31390;51.186;6.830;2022-07-19T04:36:15;3.97;;;3.30;;
45676;SDS011;31390;51.186;6.830;2022-07-19T04:38:41;6.30;;;3.53;;
45676;SDS011;31390;51.186;6.830;2022-07-19T04:41:09;7.22;;;3.72;;
45676;SDS011;31390;51.186;6.830;2022-07-19T04:43:37;4.35;;;2.90;;
45676;SDS011;31390;51.186;6.830;2022-07-19T04:46:04;7.50;;;3.17;;
45676;SDS011;31390;51.186;6.830;2022-07-19T04:48:32;5.40;;;3.78;;
45676;SDS011;31390;51.186;6.830;2022-07-19T04:50:59;5.57;;;3.45;;
45676;SDS011;31390;51.186;6.830;2022-07-19T04:53:26;6.95;;;3.47;;
45676;SDS011;31390;51.186;6.830;2022-07-19T04:55:53;6.32;;;3.17;;
45676;SDS011;31390;51.186;6.830;2022-07-19T04:58:21;6.30;;;3.45;;
45676;SDS011;31390;51.186;6.830;2022-07-19T05:00:47;8.40;;;3.58;;
45676;SDS011;31390;51.186;6.830;2022-07-19T05:03:14;5.78;;;3.30;;
45676;SDS011;31390;51.186;6.830;2022-07-19T05:05:44;7.18;;;3.35;;
45676;SDS011;31390;51.186;6.830;2022-07-19T05:08:11;6.00;;;3.35;;
45676;SDS011;31390;51.186;6.830;2022-07-19T05:10:37;9.80;;;4.07;;
45676;SDS011;31390;51.186;6.830;2022-07-19T05:13:04;5.68;;;3.10;;
45676;SDS011;31390;51.186;6.830;2022-07-19T05:15:30;5.32;;;2.88;;
45676;SDS011;31390;51.186;6.830;2022-07-19T05:17:57;6.05;;;2.92;;
45676;SDS011;31390;51.186;6.830;2022-07-19T05:20:24;10.50;;;3.50;;
45676;SDS011;31390;51.186;6.830;2022-07-19T05:22:53;4.72;;;2.83;;
45676;SDS011;31390;51.186;6.830;2022-07-19T05:25:20;5.85;;;2.95;;
45676;SDS011;31390;51.186;6.830;2022-07-19T05:27:47;4.72;;;2.75;;
45676;SDS011;31390;51.186;6.830;2022-07-19T05:30:13;4.45;;;2.60;;
45676;SDS011;31390;51.186;6.830;2022-07-19T05:32:40;7.22;;;3.33;;
45676;SDS011;31390;51.186;6.830;2022-07-19T05:35:07;4.45;;;2.78;;
45676;SDS011;31390;51.186;6.830;2022-07-19T05:37:34;6.40;;;2.70;;
45676;SDS011;31390;51.186;6.830;2022-07-19T05:40:03;6.45;;;2.58;;
45676;SDS011;31390;51.186;6.830;2022-07-19T05:42:34;5.05;;;2.78;;
45676;SDS011;31390;51.186;6.830;2022-07-19T05:45:08;7.43;;;2.58;;
45676;SDS011;31390;51.186;6.830;2022-07-19T05:47:35;6.47;;;2.72;;
45676;SDS011;31390;51.186;6.830;2022-07-19T05:50:02;5.20;;;2.78;;
45676;SDS011;31390;51.186;6.830;2022-07-19T05:52:31;7.75;;;2.83;;
45676;SDS011;31390;51.186;6.830;2022-07-19T05:55:03;7.72;;;2.85;;
45676;SDS011;31390;51.186;6.830;2022-07-19T05:57:30;8.00;;;2.75;;
45676;SDS011;31390;51.186;6.830;2022-07-19T05:59:56;7.28;;;2.50;;
45676;SDS011;31390;51.186;6.830;2022-07-19T06:02:23;9.60;;;2.83;;
45676;SDS011;31390;51.186;6.830;2022-07-19T06:04:51;6.05;;;2.60;;
45676;SDS011;31390;51.186;6.830;2022-07-19T06:07:20;5.13;;;2.38;;
45676;SDS011;31390;51.186;6.830;2022-07-19T06:09:47;4.57;;;2.40;;
45676;SDS011;31390;51.186;6.830;2022-07-19T06:12:15;5.65;;;2.50;;
45676;SDS011;31390;51.186;6.830;2022-07-19T06:14:43;6.75;;;2.40;;
45676;SDS011;31390;51.186;6.830;2022-07-19T06:17:10;5.25;;;2.90;;
45676;SDS011;31390;51.186;6.830;2022-07-19T06:19:39;6.18;;;2.15;;
45676;SDS011;31390;51.186;6.830;2022-07-19T06:22:05;5.95;;;2.65;;
45676;SDS011;31390;51.186;6.830;2022-07-19T06:24:32;5.32;;;2.13;;
45676;SDS011;31390;51.186;6.830;2022-07-19T06:27:01;6.88;;;2.53;;
45676;SDS011;31390;51.186;6.830;2022-07-19T06:29:28;5.25;;;2.38;;
45676;SDS011;31390;51.186;6.830;2022-07-19T06:31:55;5.78;;;2.60;;
45676;SDS011;31390;51.186;6.830;2022-07-19T06:34:22;5.75;;;2.60;;
45676;SDS011;31390;51.186;6.830;2022-07-19T06:36:49;8.20;;;2.65;;
45676;SDS011;31390;51.186;6.830;2022-07-19T06:39:17;7.35;;;2.38;;
45676;SDS011;31390;51.186;6.830;2022-07-19T06:41:44;5.95;;;2.63;;
45676;SDS011;31390;51.186;6.830;2022-07-19T06:44:16;7.30;;;2.50;;
45676;SDS011;31390;51.186;6.830;2022-07-19T06:46:43;3.47;;;2.28;;
45676;SDS011;31390;51.186;6.830;2022-07-19T06:49:19;7.00;;;2.45;;
45676;SDS011;31390;51.186;6.830;2022-07-19T06:51:46;4.10;;;2.20;;
45676;SDS011;31390;51.186;6.830;2022-07-19T06:54:12;3.78;;;2.20;;
45676;SDS011;31390;51.186;6.830;2022-07-19T06:56:39;4.38;;;2.13;;
45676;SDS011;31390;51.186;6.830;2022-07-19T06:59:06;3.13;;;1.83;;
45676;SDS011;31390;51.186;6.830;2022-07-19T07:01:33;3.88;;;2.20;;
45676;SDS011;31390;51.186;6.830;2022-07-19T07:04:00;4.30;;;2.17;;
45676;SDS011;31390;51.186;6.830;2022-07-19T07:06:35;7.40;;;2.45;;
45676;SDS011;31390;51.186;6.830;2022-07-19T07:09:02;8.32;;;2.35;;
45676;SDS011;31390;51.186;6.830;2022-07-19T07:11:30;7.38;;;2.50;;
45676;SDS011;31390;51.186;6.830;2022-07-19T07:13:57;12.57;;;2.40;;
45676;SDS011;31390;51.186;6.830;2022-07-19T07:16:24;4.28;;;2.30;;
45676;SDS011;31390;51.186;6.830;2022-07-19T07:18:54;7.32;;;2.50;;
45676;SDS011;31390;51.186;6.830;2022-07-19T07:21:22;4.20;;;2.65;;
45676;SDS011;31390;51.186;6.830;2022-07-19T07:23:51;8.82;;;2.55;;
45676;SDS011;31390;51.186;6.830;2022-07-19T07:26:20;5.45;;;2.63;;
45676;SDS011;31390;51.186;6.830;2022-07-19T07:28:46;6.68;;;2.53;;
45676;SDS011;31390;51.186;6.830;2022-07-19T07:31:14;7.93;;;2.10;;
45676;SDS011;31390;51.186;6.830;2022-07-19T07:33:41;3.13;;;2.00;;
45676;SDS011;31390;51.186;6.830;2022-07-19T07:36:09;5.93;;;2.00;;
45676;SDS011;31390;51.186;6.830;2022-07-19T07:38:35;5.03;;;2.00;;
45676;SDS011;31390;51.186;6.830;2022-07-19T07:41:03;5.45;;;2.25;;
45676;SDS011;31390;51.186;6.830;2022-07-19T07:43:52;4.60;;;1.85;;
45676;SDS011;31390;51.186;6.830;2022-07-19T07:46:19;4.88;;;2.30;;
45676;SDS011;31390;51.186;6.830;2022-07-19T07:49:00;7.15;;;1.92;;
45676;SDS011;31390;51.186;6.830;2022-07-19T07:51:33;4.97;;;2.03;;
45676;SDS011;31390;51.186;6.830;2022-07-19T07:54:11;4.55;;;2.30;;
45676;SDS011;31390;51.186;6.830;2022-07-19T07:56:38;6.50;;;2.00;;
45676;SDS011;31390;51.186;6.830;2022-07-19T07:59:05;5.40;;;2.20;;
45676;SDS011;31390;51.186;6.830;2022-07-19T08:01:32;4.95;;;2.30;;
45676;SDS011;31390;51.186;6.830;2022-07-19T08:04:00;5.78;;;2.33;;
45676;SDS011;31390;51.186;6.830;2022-07-19T08:06:27;4.85;;;2.45;;
45676;SDS011;31390;51.186;6.830;2022-07-19T08:08:54;2.97;;;2.03;;
45676;SDS011;31390;51.186;6.830;2022-07-19T08:11:20;5.97;;;2.30;;
45676;SDS011;31390;51.186;6.830;2022-07-19T08:13:47;3.28;;;2.40;;
45676;SDS011;31390;51.186;6.830;2022-07-19T08:16:13;5.82;;;2.38;;
45676;SDS011;31390;51.186;6.830;2022-07-19T08:18:40;4.75;;;2.00;;
45676;SDS011;31390;51.186;6.830;2022-07-19T08:21:07;5.28;;;2.05;;
45676;SDS011;31390;51.186;6.830;2022-07-19T08:23:33;3.65;;;2.53;;
45676;SDS011;31390;51.186;6.830;2022-07-19T08:26:00;4.57;;;2.30;;
45676;SDS011;31390;51.186;6.830;2022-07-19T08:28:27;5.28;;;2.40;;
45676;SDS011;31390;51.186;6.830;2022-07-19T08:30:53;5.35;;;2.22;;
45676;SDS011;31390;51.186;6.830;2022-07-19T08:33:38;6.68;;;2.75;;
45676;SDS011;31390;51.186;6.830;2022-07-19T08:36:05;4.22;;;2.45;;
45676;SDS011;31390;51.186;6.830;2022-07-19T08:38:35;5.47;;;2.60;;
45676;SDS011;31390;51.186;6.830;2022-07-19T08:41:03;7.82;;;2.42;;
45676;SDS011;31390;51.186;6.830;2022-07-19T08:43:30;5.15;;;2.53;;
45676;SDS011;31390;51.186;6.830;2022-07-19T08:45:59;4.30;;;2.28;;
45676;SDS011;31390;51.186;6.830;2022-07-19T08:48:30;4.90;;;2.50;;
45676;SDS011;31390;51.186;6.830;2022-07-19T08:51:05;5.65;;;2.42;;
45676;SDS011;31390;51.186;6.830;2022-07-19T08:53:33;7.30;;;2.45;;
45676;SDS011;31390;51.186;6.830;2022-07-19T08:56:04;6.32;;;2.60;;
45676;SDS011;31390;51.186;6.830;2022-07-19T08:58:51;2.65;;;1.98;;
45676;SDS011;31390;51.186;6.830;2022-07-19T09:01:18;6.22;;;2.08;;
45676;SDS011;31390;51.186;6.830;2022-07-19T09:06:53;6.00;;;2.47;;
45676;SDS011;31390;51.186;6.830;2022-07-19T09:09:21;4.45;;;2.22;;
45676;SDS011;31390;51.186;6.830;2022-07-19T09:11:53;6.20;;;2.78;;
45676;SDS011;31390;51.186;6.830;2022-07-19T09:14:21;5.30;;;2.60;;
45676;SDS011;31390;51.186;6.830;2022-07-19T09:16:49;4.93;;;2.70;;
45676;SDS011;31390;51.186;6.830;2022-07-19T09:19:16;3.80;;;2.20;;
45676;SDS011;31390;51.186;6.830;2022-07-19T09:21:54;5.90;;;2.53;;
45676;SDS011;31390;51.186;6.830;2022-07-19T09:24:23;6.28;;;2.83;;
45676;SDS011;31390;51.186;6.830;2022-07-19T09:29:36;6.55;;;2.28;;
45676;SDS011;31390;51.186;6.830;2022-07-19T09:32:11;6.28;;;2.53;;
45676;SDS011;31390;51.186;6.830;2022-07-19T09:34:43;7.57;;;2.85;;
45676;SDS011;31390;51.186;6.830;2022-07-19T09:37:16;6.00;;;2.15;;
45676;SDS011;31390;51.186;6.830;2022-07-19T09:39:43;6.97;;;2.40;;
45676;SDS011;31390;51.186;6.830;2022-07-19T09:42:14;8.90;;;2.35;;
45676;SDS011;31390;51.186;6.830;2022-07-19T09:44:41;5.55;;;2.72;;
45676;SDS011;31390;51.186;6.830;2022-07-19T09:47:08;8.90;;;2.60;;
45676;SDS011;31390;51.186;6.830;2022-07-19T09:49:37;7.43;;;2.33;;
45676;SDS011;31390;51.186;6.830;2022-07-19T09:52:04;8.20;;;2.75;;
45676;SDS011;31390;51.186;6.830;2022-07-19T09:54:31;4.43;;;2.45;;
45676;SDS011;31390;51.186;6.830;2022-07-19T09:56:58;6.22;;;2.10;;
45676;SDS011;31390;51.186;6.830;2022-07-19T09:59:25;2.78;;;1.83;;
45676;SDS011;31390;51.186;6.830;2022-07-19T10:01:53;5.68;;;2.30;;
45676;SDS011;31390;51.186;6.830;2022-07-19T10:04:22;6.30;;;2.33;;
45676;SDS011;31390;51.186;6.830;2022-07-19T10:06:49;6.07;;;2.42;;
45676;SDS011;31390;51.186;6.830;2022-07-19T10:09:17;4.68;;;2.28;;
45676;SDS011;31390;51.186;6.830;2022-07-19T10:11:52;4.25;;;2.17;;
45676;SDS011;31390;51.186;6.830;2022-07-19T10:14:22;5.93;;;1.90;;
45676;SDS011;31390;51.186;6.830;2022-07-19T10:19:44;4.68;;;2.25;;
45676;SDS011;31390;51.186;6.830;2022-07-19T10:22:13;4.32;;;2.15;;
45676;SDS011;31390;51.186;6.830;2022-07-19T10:24:50;4.88;;;2.05;;
45676;SDS011;31390;51.186;6.830;2022-07-19T10:29:50;2.63;;;2.20;;
45676;SDS011;31390;51.186;6.830;2022-07-19T10:32:17;6.85;;;2.08;;
45676;SDS011;31390;51.186;6.830;2022-07-19T10:34:44;4.20;;;1.73;;
45676;SDS011;31390;51.186;6.830;2022-07-19T10:37:13;3.45;;;2.35;;
45676;SDS011;31390;51.186;6.830;2022-07-19T10:39:40;5.22;;;1.92;;
45676;SDS011;31390;51.186;6.830;2022-07-19T10:42:22;7.13;;;2.03;;
45676;SDS011;31390;51.186;6.830;2022-07-19T10:50:04;2.92;;;1.80;;
45676;SDS011;31390;51.186;6.830;2022-07-19T10:52:31;3.58;;;2.10;;
45676;SDS011;31390;51.186;6.830;2022-07-19T11:00:26;3.45;;;1.85;;
45676;SDS011;31390;51.186;6.830;2022-07-19T11:03:22;2.22;;;1.73;;
45676;SDS011;31390;51.186;6.830;2022-07-19T11:05:46;2.42;;;2.05;;
45676;SDS011;31390;51.186;6.830;2022-07-19T11:08:14;4.53;;;2.35;;
45676;SDS011;31390;51.186;6.830;2022-07-19T11:10:40;2.97;;;2.10;;
45676;SDS011;31390;51.186;6.830;2022-07-19T11:13:07;3.10;;;2.08;;
45676;SDS011;31390;51.186;6.830;2022-07-19T11:15:34;5.88;;;2.08;;
45676;SDS011;31390;51.186;6.830;2022-07-19T11:18:05;10.57;;;2.28;;
45676;SDS011;31390;51.186;6.830;2022-07-19T11:20:36;4.28;;;1.90;;
45676;SDS011;31390;51.186;6.830;2022-07-19T11:23:03;2.88;;;1.85;;
45676;SDS011;31390;51.186;6.830;2022-07-19T11:25:36;4.63;;;2.00;;
45676;SDS011;31390;51.186;6.830;2022-07-19T11:28:05;5.47;;;1.90;;
45676;SDS011;31390;51.186;6.830;2022-07-19T11:30:33;3.15;;;2.22;;
45676;SDS011;31390;51.186;6.830;2022-07-19T11:33:00;4.32;;;1.58;;
45676;SDS011;31390;51.186;6.830;2022-07-19T11:35:28;4.82;;;1.88;;
45676;SDS011;31390;51.186;6.830;2022-07-19T11:37:56;6.55;;;2.00;;
45676;SDS011;31390;51.186;6.830;2022-07-19T11:40:24;3.83;;;1.88;;
45676;SDS011;31390;51.186;6.830;2022-07-19T11:42:52;6.68;;;1.90;;
45676;SDS011;31390;51.186;6.830;2022-07-19T11:45:43;7.05;;;1.95;;
45676;SDS011;31390;51.186;6.830;2022-07-19T11:48:12;3.70;;;1.98;;
45676;SDS011;31390;51.186;6.830;2022-07-19T11:50:40;2.92;;;1.90;;
45676;SDS011;31390;51.186;6.830;2022-07-19T11:53:18;6.00;;;2.13;;
45676;SDS011;31390;51.186;6.830;2022-07-19T11:55:47;5.68;;;2.08;;
45676;SDS011;31390;51.186;6.830;2022-07-19T11:58:16;2.58;;;1.95;;
45676;SDS011;31390;51.186;6.830;2022-07-19T12:00:43;2.67;;;1.95;;
45676;SDS011;31390;51.186;6.830;2022-07-19T12:03:15;3.83;;;2.40;;
45676;SDS011;31390;51.186;6.830;2022-07-19T12:05:57;3.55;;;1.85;;
45676;SDS011;31390;51.186;6.830;2022-07-19T12:08:33;4.95;;;1.90;;
45676;SDS011;31390;51.186;6.830;2022-07-19T12:11:01;4.72;;;2.30;;
45676;SDS011;31390;51.186;6.830;2022-07-19T12:13:41;5.20;;;1.77;;
45676;SDS011;31390;51.186;6.830;2022-07-19T12:16:15;5.38;;;2.40;;
45676;SDS011;31390;51.186;6.830;2022-07-19T12:18:53;7.32;;;2.70;;
45676;SDS011;31390;51.186;6.830;2022-07-19T12:24:14;4.43;;;2.30;;
45676;SDS011;31390;51.186;6.830;2022-07-19T12:26:55;7.63;;;2.17;;
45676;SDS011;31390;51.186;6.830;2022-07-19T12:32:00;5.78;;;2.40;;
45676;SDS011;31390;51.186;6.830;2022-07-19T12:34:28;4.00;;;1.98;;
45676;SDS011;31390;51.186;6.830;2022-07-19T12:36:56;5.35;;;2.35;;
45676;SDS011;31390;51.186;6.830;2022-07-19T12:39:30;5.15;;;1.90;;
45676;SDS011;31390;51.186;6.830;2022-07-19T12:41:59;5.13;;;2.08;;
45676;SDS011;31390;51.186;6.830;2022-07-19T12:44:28;6.60;;;2.17;;
45676;SDS011;31390;51.186;6.830;2022-07-19T12:46:55;8.27;;;2.03;;
45676;SDS011;31390;51.186;6.830;2022-07-19T12:49:47;5.05;;;2.10;;
45676;SDS011;31390;51.186;6.830;2022-07-19T12:52:30;3.40;;;1.75;;
45676;SDS011;31390;51.186;6.830;2022-07-19T12:54:57;2.38;;;1.77;;
45676;SDS011;31390;51.186;6.830;2022-07-19T12:57:26;2.65;;;1.95;;
45676;SDS011;31390;51.186;6.830;2022-07-19T12:59:56;2.97;;;2.10;;
45676;SDS011;31390;51.186;6.830;2022-07-19T13:02:22;5.60;;;1.98;;
45676;SDS011;31390;51.186;6.830;2022-07-19T13:04:50;5.07;;;1.88;;
45676;SDS011;31390;51.186;6.830;2022-07-19T13:07:16;4.85;;;2.30;;
45676;SDS011;31390;51.186;6.830;2022-07-19T13:09:50;7.00;;;1.77;;
45676;SDS011;31390;51.186;6.830;2022-07-19T13:12:17;6.28;;;2.40;;
45676;SDS011;31390;51.186;6.830;2022-07-19T13:14:43;2.47;;;1.80;;
45676;SDS011;31390;51.186;6.830;2022-07-19T13:17:10;7.53;;;1.83;;
45676;SDS011;31390;51.186;6.830;2022-07-19T13:19:40;4.97;;;1.88;;
45676;SDS011;31390;51.186;6.830;2022-07-19T13:22:07;9.40;;;2.00;;
45676;SDS011;31390;51.186;6.830;2022-07-19T13:24:34;4.28;;;1.70;;
45676;SDS011;31390;51.186;6.830;2022-07-19T13:27:22;5.20;;;2.00;;
45676;SDS011;31390;51.186;6.830;2022-07-19T13:29:52;4.35;;;2.40;;
45676;SDS011;31390;51.186;6.830;2022-07-19T13:32:19;4.32;;;1.73;;
45676;SDS011;31390;51.186;6.830;2022-07-19T13:34:46;3.78;;;1.85;;
45676;SDS011;31390;51.186;6.830;2022-07-19T13:37:17;4.05;;;1.83;;
45676;SDS011;31390;51.186;6.830;2022-07-19T13:39:47;3.47;;;2.20;;
45676;SDS011;31390;51.186;6.830;2022-07-19T13:42:17;8.63;;;2.30;;
45676;SDS011;31390;51.186;6.830;2022-07-19T13:44:46;7.45;;;2.10;;
45676;SDS011;31390;51.186;6.830;2022-07-19T13:47:13;8.52;;;1.98;;
45676;SDS011;31390;51.186;6.830;2022-07-19T13:49:42;4.93;;;1.83;;
45676;SDS011;31390;51.186;6.830;2022-07-19T13:52:12;7.07;;;2.10;;
45676;SDS011;31390;51.186;6.830;2022-07-19T13:54:42;3.17;;;1.70;;
45676;SDS011;31390;51.186;6.830;2022-07-19T13:57:11;5.15;;;1.70;;
45676;SDS011;31390;51.186;6.830;2022-07-19T13:59:40;3.67;;;1.90;;
45676;SDS011;31390;51.186;6.830;2022-07-19T14:02:09;9.45;;;1.98;;
45676;SDS011;31390;51.186;6.830;2022-07-19T14:04:36;3.58;;;1.80;;
45676;SDS011;31390;51.186;6.830;2022-07-19T14:07:06;5.30;;;1.90;;
45676;SDS011;31390;51.186;6.830;2022-07-19T14:09:34;3.47;;;1.70;;
45676;SDS011;31390;51.186;6.830;2022-07-19T14:12:10;4.50;;;1.52;;
45676;SDS011;31390;51.186;6.830;2022-07-19T14:14:39;6.10;;;2.05;;
45676;SDS011;31390;51.186;6.830;2022-07-19T14:17:06;5.25;;;1.48;;
45676;SDS011;31390;51.186;6.830;2022-07-19T14:19:33;2.38;;;1.63;;
45676;SDS011;31390;51.186;6.830;2022-07-19T14:22:10;8.73;;;2.38;;
45676;SDS011;31390;51.186;6.830;2022-07-19T14:24:37;11.55;;;2.05;;
45676;SDS011;31390;51.186;6.830;2022-07-19T14:27:05;6.20;;;2.13;;
45676;SDS011;31390;51.186;6.830;2022-07-19T14:29:32;5.18;;;2.10;;
45676;SDS011;31390;51.186;6.830;2022-07-19T14:32:01;2.33;;;1.88;;
45676;SDS011;31390;51.186;6.830;2022-07-19T14:34:32;7.65;;;2.72;;
45676;SDS011;31390;51.186;6.830;2022-07-19T14:37:03;8.65;;;2.70;;
45676;SDS011;31390;51.186;6.830;2022-07-19T14:39:33;7.05;;;2.38;;
45676;SDS011;31390;51.186;6.830;2022-07-19T14:42:01;9.45;;;2.67;;
45676;SDS011;31390;51.186;6.830;2022-07-19T14:44:32;8.80;;;3.33;;
45676;SDS011;31390;51.186;6.830;2022-07-19T14:47:00;4.32;;;2.50;;
45676;SDS011;31390;51.186;6.830;2022-07-19T14:49:27;3.97;;;2.60;;
45676;SDS011;31390;51.186;6.830;2022-07-19T14:51:55;8.10;;;3.10;;
45676;SDS011;31390;51.186;6.830;2022-07-19T14:54:22;5.03;;;2.70;;
45676;SDS011;31390;51.186;6.830;2022-07-19T14:56:51;6.35;;;2.83;;
45676;SDS011;31390;51.186;6.830;2022-07-19T14:59:25;5.25;;;3.08;;
45676;SDS011;31390;51.186;6.830;2022-07-19T15:01:54;5.47;;;2.47;;
45676;SDS011;31390;51.186;6.830;2022-07-19T15:04:22;3.40;;;2.42;;
45676;SDS011;31390;51.186;6.830;2022-07-19T15:06:49;3.63;;;2.00;;
45676;SDS011;31390;51.186;6.830;2022-07-19T15:09:18;4.18;;;2.30;;
45676;SDS011;31390;51.186;6.830;2022-07-19T15:11:46;7.38;;;2.30;;
45676;SDS011;31390;51.186;6.830;2022-07-19T15:14:12;6.43;;;2.30;;
45676;SDS011;31390;51.186;6.830;2022-07-19T15:16:44;7.57;;;2.55;;
45676;SDS011;31390;51.186;6.830;2022-07-19T15:19:10;5.22;;;2.40;;
45676;SDS011;31390;51.186;6.830;2022-07-19T15:21:38;2.40;;;2.17;;
45676;SDS011;31390;51.186;6.830;2022-07-19T15:24:04;3.08;;;2.20;;
45676;SDS011;31390;51.186;6.830;2022-07-19T15:26:31;4.00;;;2.15;;